Time;durP1;ratioP1;P1;durP2;ratioP2;P2;SDS_P1;SDS_P2;PMS_P1;PMS_P2;Temp;Humidity;BMP_temperature;BMP_pressure;BME280_temperature;BME280_humidity;BME280_pressure;Samples;Min_cycle;Max_cycle;Signal;HPM_P1;HPM_P2
2023/06/19 00:01:29;;;;;;;11.38;7.90;;;;;;;20.01;52.61;95989.19;5032734;28;20408;-73
2023/06/19 00:03:57;;;;;;;9.82;7.60;;;;;;;19.96;52.85;95989.56;5032593;28;20052;-72
2023/06/19 00:06:23;;;;;;;10.63;7.40;;;;;;;19.94;53.14;95980.06;5032206;28;20046;-72
2023/06/19 00:08:50;;;;;;;8.65;6.70;;;;;;;19.90;53.32;95982.03;5032078;28;20539;-72
2023/06/19 00:11:16;;;;;;;10.23;7.40;;;;;;;19.85;52.88;95983.19;5032027;28;20046;-72
2023/06/19 00:13:43;;;;;;;9.02;7.47;;;;;;;19.80;53.09;95978.03;5032390;28;20042;-72
2023/06/19 00:16:09;;;;;;;10.80;7.70;;;;;;;19.78;53.73;95967.38;5031863;28;20045;-72
2023/06/19 00:18:39;;;;;;;8.43;6.93;;;;;;;19.77;54.19;95959.44;5031547;28;20511;-72
2023/06/19 00:21:08;;;;;;;8.82;7.25;;;;;;;19.69;53.74;95964.16;5031982;28;20045;-73
2023/06/19 00:23:35;;;;;;;9.18;7.28;;;;;;;19.69;53.99;95963.38;5032181;28;20374;-72
2023/06/19 00:26:01;;;;;;;9.25;7.55;;;;;;;19.68;54.41;95957.06;5031971;28;20049;-72
2023/06/19 00:28:28;;;;;;;11.65;7.50;;;;;;;19.70;54.55;95953.91;5031716;28;20046;-72
2023/06/19 00:30:55;;;;;;;9.48;7.75;;;;;;;19.66;53.53;95953.09;5031741;28;20393;-72
2023/06/19 00:33:21;;;;;;;9.57;7.30;;;;;;;19.68;53.87;95954.28;5031696;28;20075;-72
2023/06/19 00:35:48;;;;;;;10.85;7.55;;;;;;;19.70;52.34;95962.19;5032010;28;20413;-72
2023/06/19 00:38:16;;;;;;;9.55;7.35;;;;;;;19.74;51.87;95976.81;5031441;28;20412;-72
2023/06/19 00:40:42;;;;;;;8.75;7.05;;;;;;;19.77;51.79;95970.50;5032297;28;20049;-72
2023/06/19 00:43:09;;;;;;;9.05;7.13;;;;;;;19.78;52.10;95972.06;5031310;28;20076;-72
2023/06/19 00:45:36;;;;;;;11.10;7.05;;;;;;;19.80;51.65;95964.22;5031811;28;20045;-72
2023/06/19 00:48:05;;;;;;;10.20;7.18;;;;;;;19.83;52.02;95965.41;5031173;28;20057;-73
2023/06/19 00:50:32;;;;;;;9.63;7.50;;;;;;;19.70;51.68;95953.91;5037051;28;20052;-72
2023/06/19 00:52:59;;;;;;;9.38;7.30;;;;;;;19.66;51.43;95950.31;5016460;28;20057;-72
2023/06/19 00:55:30;;;;;;;9.50;7.05;;;;;;;19.78;52.35;95942.50;5024210;28;20181;-72
2023/06/19 00:57:57;;;;;;;8.23;6.75;;;;;;;19.84;52.25;95958.69;5031222;28;20543;-72
2023/06/19 01:00:23;;;;;;;8.50;7.03;;;;;;;19.85;51.39;95955.56;5022834;28;20770;-73
2023/06/19 01:02:50;;;;;;;11.98;7.03;;;;;;;19.85;50.68;95960.28;5031675;28;20041;-72
2023/06/19 01:05:17;;;;;;;8.52;6.97;;;;;;;19.91;50.94;95958.72;5022757;28;20060;-72
2023/06/19 01:07:48;;;;;;;9.60;7.22;;;;;;;19.96;50.64;95961.13;5031460;28;20121;-71
2023/06/19 01:10:20;;;;;;;8.98;6.95;;;;;;;20.02;50.80;95962.34;5030714;28;20041;-72
2023/06/19 01:12:56;;;;;;;9.27;6.80;;;;;;;20.03;50.60;95961.94;5031212;28;20045;-72
2023/06/19 01:15:23;;;;;;;12.18;7.90;;;;;;;20.00;50.86;95973.00;5030751;28;20045;-72
2023/06/19 01:17:51;;;;;;;11.15;7.20;;;;;;;20.04;51.10;95969.03;5031166;28;20038;-72
2023/06/19 01:20:17;;;;;;;7.95;6.53;;;;;;;20.08;51.27;95972.63;5022491;28;20045;-72
2023/06/19 01:22:45;;;;;;;9.60;6.80;;;;;;;20.12;51.38;95963.56;5031250;28;20046;-72
2023/06/19 01:25:13;;;;;;;7.53;6.43;;;;;;;20.13;51.58;95960.41;5030808;28;20102;-73
2023/06/19 01:27:41;;;;;;;9.55;6.80;;;;;;;20.12;51.80;95956.06;5025898;28;20563;-72
2023/06/19 01:30:11;;;;;;;9.65;7.10;;;;;;;20.13;50.81;95957.63;5028950;28;20095;-72
2023/06/19 01:32:48;;;;;;;20.48;7.00;;;;;;;20.17;51.03;95957.66;5031040;28;20045;-72
2023/06/19 01:35:18;;;;;;;8.60;6.40;;;;;;;20.16;50.17;95961.59;5030234;28;20060;-72
2023/06/19 01:37:49;;;;;;;8.20;6.50;;;;;;;20.18;50.15;95967.53;5031113;28;20060;-72
2023/06/19 01:40:17;;;;;;;8.23;6.60;;;;;;;20.18;51.10;95964.75;5030021;28;20045;-72
2023/06/19 01:42:44;;;;;;;11.82;6.80;;;;;;;20.10;50.47;95976.97;5022728;28;20038;-72
2023/06/19 01:45:11;;;;;;;9.38;6.35;;;;;;;20.07;50.39;95984.06;5029871;28;20055;-73
2023/06/19 01:47:38;;;;;;;9.75;7.53;;;;;;;20.00;51.55;95989.56;5030853;28;20119;-72
2023/06/19 01:50:05;;;;;;;9.38;7.07;;;;;;;19.88;52.20;95998.97;5029495;28;20054;-72
2023/06/19 01:52:32;;;;;;;8.60;7.45;;;;;;;19.89;52.22;95995.06;5022739;28;20096;-72
2023/06/19 01:55:00;;;;;;;9.35;7.78;;;;;;;19.90;52.66;95995.84;5022393;28;20050;-72
2023/06/19 01:57:27;;;;;;;9.10;7.18;;;;;;;19.93;52.51;96000.56;5028709;28;20049;-72
2023/06/19 01:59:53;;;;;;;9.48;7.22;;;;;;;19.94;52.85;95996.63;5022547;28;20132;-72
2023/06/19 02:02:20;;;;;;;9.48;7.30;;;;;;;19.96;52.97;95992.31;5030130;28;20069;-72
2023/06/19 02:04:46;;;;;;;9.15;6.88;;;;;;;19.95;52.56;95998.25;5024044;28;20046;-72
2023/06/19 02:07:13;;;;;;;9.88;7.32;;;;;;;19.99;52.76;95997.06;5044606;28;20056;-72
2023/06/19 02:09:40;;;;;;;9.80;6.88;;;;;;;19.99;52.94;95999.84;5032617;28;20072;-72
2023/06/19 02:12:09;;;;;;;10.13;7.18;;;;;;;20.01;53.13;95997.47;5034848;28;20076;-73
2023/06/19 02:14:36;;;;;;;10.57;6.90;;;;;;;20.00;52.74;95993.13;5038089;28;20049;-72
2023/06/19 02:17:02;;;;;;;8.32;7.22;;;;;;;20.03;52.48;96000.63;5039612;28;20045;-73
2023/06/19 02:19:29;;;;;;;10.10;6.78;;;;;;;20.02;53.08;95993.53;5034886;28;20406;-72
2023/06/19 02:21:55;;;;;;;10.98;8.20;;;;;;;19.90;52.25;95991.09;5020172;28;20048;-72
2023/06/19 02:24:22;;;;;;;11.15;7.50;;;;;;;19.94;52.41;95985.56;5030115;28;20296;-72
2023/06/19 02:26:48;;;;;;;12.60;7.00;;;;;;;19.93;52.24;95984.00;5023144;28;20042;-72
2023/06/19 02:29:16;;;;;;;15.98;8.32;;;;;;;19.86;52.33;95978.44;5037723;28;20128;-73
2023/06/19 02:31:43;;;;;;;25.83;8.75;;;;;;;19.73;53.04;95987.06;5035320;28;20041;-72
2023/06/19 02:34:10;;;;;;;10.25;7.25;;;;;;;19.84;52.98;95976.06;5035731;28;20045;-73
2023/06/19 02:36:37;;;;;;;14.93;8.18;;;;;;;19.86;52.87;95973.72;5036598;28;20046;-72
2023/06/19 02:39:05;;;;;;;9.95;7.25;;;;;;;19.97;53.84;95977.31;5035341;28;20057;-73
2023/06/19 02:41:31;;;;;;;9.32;6.93;;;;;;;20.02;53.72;95971.41;5035174;28;20101;-73
2023/06/19 02:43:58;;;;;;;26.70;8.18;;;;;;;20.02;52.55;95978.91;5033333;28;20060;-72
2023/06/19 02:46:26;;;;;;;10.65;6.80;;;;;;;20.05;53.47;95976.19;5030129;28;20045;-72
2023/06/19 02:48:52;;;;;;;11.25;7.60;;;;;;;20.05;53.16;95975.38;5035390;28;20052;-72
2023/06/19 02:51:19;;;;;;;10.48;7.68;;;;;;;20.02;53.00;95976.94;5035165;28;20041;-72
2023/06/19 02:53:45;;;;;;;9.48;6.93;;;;;;;20.00;52.98;95978.53;5035682;28;20168;-72
2023/06/19 02:56:12;;;;;;;9.70;7.00;;;;;;;20.08;54.00;95978.16;5033702;28;20053;-73
2023/06/19 02:58:39;;;;;;;8.18;6.63;;;;;;;20.08;53.55;95980.13;5032911;28;20049;-72
2023/06/19 03:01:08;;;;;;;9.00;6.95;;;;;;;20.05;53.51;95984.47;5016173;28;20050;-73
2023/06/19 03:03:37;;;;;;;8.88;7.32;;;;;;;20.12;53.20;95982.91;5013307;28;20049;-73
2023/06/19 03:06:05;;;;;;;10.27;7.07;;;;;;;20.15;52.55;95990.41;5012493;28;20046;-73
2023/06/19 03:08:31;;;;;;;7.93;6.60;;;;;;;20.17;53.38;95990.81;5012711;28;20046;-72
2023/06/19 03:10:58;;;;;;;8.13;6.68;;;;;;;20.16;53.18;95980.97;5011974;28;20046;-72
2023/06/19 03:13:24;;;;;;;9.40;7.07;;;;;;;20.16;52.98;95990.03;5023911;28;20072;-73
2023/06/19 03:15:51;;;;;;;8.85;6.65;;;;;;;20.16;52.86;95986.47;5033152;28;20037;-73
2023/06/19 03:18:18;;;;;;;11.23;7.63;;;;;;;20.15;53.07;95987.63;5033155;28;20049;-72
2023/06/19 03:20:45;;;;;;;9.55;7.57;;;;;;;20.17;53.71;95988.84;5033214;28;20076;-72
2023/06/19 03:23:12;;;;;;;11.93;8.32;;;;;;;20.17;53.54;95990.81;5032614;28;20046;-73
2023/06/19 03:25:42;;;;;;;13.05;7.63;;;;;;;20.18;53.58;95989.63;5031118;28;20424;-72
2023/06/19 03:28:09;;;;;;;9.50;7.25;;;;;;;20.19;53.52;95993.97;5029534;28;20065;-73
2023/06/19 03:30:35;;;;;;;11.95;8.48;;;;;;;20.04;53.08;95990.34;5029961;28;20157;-72
2023/06/19 03:33:02;;;;;;;9.98;7.95;;;;;;;19.99;53.05;95993.50;5030283;28;20053;-74
2023/06/19 03:35:28;;;;;;;8.95;7.15;;;;;;;20.05;53.50;96005.78;5030019;28;20516;-72
2023/06/19 03:37:56;;;;;;;9.35;7.90;;;;;;;20.09;53.67;96003.81;5029753;28;20132;-72
2023/06/19 03:40:22;;;;;;;12.60;7.85;;;;;;;20.08;54.03;96000.25;5028593;28;20049;-72
2023/06/19 03:42:49;;;;;;;13.98;8.20;;;;;;;20.14;54.20;96008.19;5029586;28;20064;-72
2023/06/19 03:45:16;;;;;;;17.35;8.40;;;;;;;20.12;53.90;96013.31;5028707;28;20723;-72
2023/06/19 03:47:42;;;;;;;15.23;8.48;;;;;;;20.16;54.82;96016.88;5029549;28;20050;-72
2023/06/19 03:50:09;;;;;;;16.88;8.68;;;;;;;20.17;54.38;96018.47;5028389;28;20504;-73
2023/06/19 03:52:36;;;;;;;15.52;8.90;;;;;;;20.18;54.38;96020.03;5029147;28;20511;-72
2023/06/19 03:55:05;;;;;;;13.30;8.02;;;;;;;20.19;54.42;96025.19;5031996;28;20053;-73
2023/06/19 03:57:31;;;;;;;11.73;8.27;;;;;;;20.17;54.51;96024.00;5033136;28;20037;-72
2023/06/19 03:59:58;;;;;;;11.57;8.48;;;;;;;20.14;54.50;96033.06;5032938;28;20045;-72
2023/06/19 04:02:25;;;;;;;14.85;8.50;;;;;;;20.15;55.08;96034.63;5032166;28;20053;-72
2023/06/19 04:04:51;;;;;;;11.02;7.97;;;;;;;20.17;54.49;96035.84;5032789;28;20643;-72
2023/06/19 04:07:18;;;;;;;15.00;8.52;;;;;;;20.18;54.76;96040.19;5031797;28;20065;-73
2023/06/19 04:09:44;;;;;;;20.60;9.10;;;;;;;20.14;54.30;96038.59;5023869;28;20046;-72
2023/06/19 04:12:12;;;;;;;9.38;7.18;;;;;;;20.13;53.62;96048.84;5029115;28;20049;-72
2023/06/19 04:14:39;;;;;;;9.13;7.32;;;;;;;20.16;53.18;96041.78;5032436;28;20042;-72
2023/06/19 04:17:06;;;;;;;9.88;7.82;;;;;;;20.19;53.48;96052.03;5031863;28;20052;-72
2023/06/19 04:19:32;;;;;;;10.43;7.10;;;;;;;20.21;54.25;96044.97;5032130;28;20048;-72
2023/06/19 04:21:59;;;;;;;12.52;8.18;;;;;;;20.16;54.95;96056.38;5032470;28;20045;-72
2023/06/19 04:24:25;;;;;;;10.60;8.57;;;;;;;20.18;55.13;96053.22;5031963;28;20421;-72
2023/06/19 04:26:52;;;;;;;10.10;7.55;;;;;;;20.18;55.66;96058.75;5032193;28;20045;-73
2023/06/19 04:29:20;;;;;;;9.85;7.63;;;;;;;20.19;55.47;96057.56;5031289;28;20050;-72
2023/06/19 04:31:47;;;;;;;10.45;7.80;;;;;;;20.20;56.16;96056.38;5031971;28;20501;-72
2023/06/19 04:34:16;;;;;;;8.60;7.43;;;;;;;20.21;55.72;96058.00;5031301;28;20117;-72
2023/06/19 04:36:43;;;;;;;9.25;7.93;;;;;;;20.23;55.64;96063.91;5032095;28;20041;-72
2023/06/19 04:39:10;;;;;;;10.70;8.70;;;;;;;20.24;56.04;96059.97;5031229;28;20045;-73
2023/06/19 04:41:38;;;;;;;12.63;8.10;;;;;;;20.22;56.56;96068.66;5031834;28;20116;-72
2023/06/19 04:44:06;;;;;;;9.27;7.60;;;;;;;20.24;56.35;96071.03;5031468;28;20107;-73
2023/06/19 04:46:33;;;;;;;11.55;7.75;;;;;;;20.24;56.33;96077.34;5031939;28;20060;-72
2023/06/19 04:49:03;;;;;;;11.30;8.18;;;;;;;20.24;56.23;96082.88;5031501;28;20420;-72
2023/06/19 04:51:30;;;;;;;9.52;7.63;;;;;;;20.25;56.26;96089.19;5031593;28;20045;-72
2023/06/19 04:53:56;;;;;;;10.27;8.18;;;;;;;20.22;56.14;96093.53;5038320;28;20397;-72
2023/06/19 04:56:23;;;;;;;8.88;7.72;;;;;;;20.25;56.21;96094.72;5015396;28;20045;-72
2023/06/19 04:58:51;;;;;;;10.30;8.07;;;;;;;20.21;56.98;96110.50;5031182;28;20436;-72
2023/06/19 05:01:22;;;;;;;10.75;8.20;;;;;;;20.19;57.38;96099.03;5030932;28;20046;-72
2023/06/19 05:03:50;;;;;;;10.90;8.57;;;;;;;20.20;58.38;96103.38;5031678;28;20444;-72
2023/06/19 05:06:16;;;;;;;10.63;8.43;;;;;;;20.21;59.08;96105.78;5031168;28;20049;-72
2023/06/19 05:08:43;;;;;;;11.27;8.82;;;;;;;20.20;58.69;96114.44;5031553;28;20149;-72
2023/06/19 05:11:09;;;;;;;12.43;7.82;;;;;;;20.24;58.44;96120.78;5031105;28;20057;-72
2023/06/19 05:13:36;;;;;;;13.02;8.60;;;;;;;20.21;58.81;96122.38;5031341;28;20034;-72
2023/06/19 05:16:03;;;;;;;13.00;8.70;;;;;;;20.18;58.34;96125.09;5030865;28;20049;-72
2023/06/19 05:18:29;;;;;;;10.07;7.90;;;;;;;20.20;57.38;96114.44;5031083;28;20412;-73
2023/06/19 05:20:57;;;;;;;12.43;8.10;;;;;;;20.25;57.03;96114.06;5031237;28;20041;-72
2023/06/19 05:23:24;;;;;;;11.90;8.75;;;;;;;20.28;57.64;96116.06;5030574;28;20045;-72
2023/06/19 05:25:50;;;;;;;16.05;9.43;;;;;;;20.23;56.59;96108.94;5031072;28;20044;-72
2023/06/19 05:28:17;;;;;;;14.35;9.07;;;;;;;20.16;56.53;96119.19;5021932;28;20042;-72
2023/06/19 05:30:44;;;;;;;14.50;9.18;;;;;;;20.18;57.49;96116.81;5030842;28;20076;-72
2023/06/19 05:33:15;;;;;;;14.70;9.48;;;;;;;20.18;57.33;96111.28;5030252;28;20041;-72
2023/06/19 05:35:42;;;;;;;12.70;8.25;;;;;;;20.30;57.54;96113.69;5030916;28;20047;-72
2023/06/19 05:38:10;;;;;;;14.02;8.77;;;;;;;20.34;57.68;96114.53;5012424;28;20563;-74
2023/06/19 05:40:37;;;;;;;11.75;8.77;;;;;;;20.40;58.17;96124.03;5029357;28;20056;-73
2023/06/19 05:43:03;;;;;;;10.32;8.10;;;;;;;20.47;57.94;96110.28;5029842;28;20056;-74
2023/06/19 05:45:30;;;;;;;19.40;10.80;;;;;;;20.45;57.69;96117.34;5030275;28;20042;-74
2023/06/19 05:47:56;;;;;;;14.70;9.15;;;;;;;20.53;57.84;96122.56;5010702;28;20513;-73
2023/06/19 05:50:23;;;;;;;12.38;10.50;;;;;;;20.56;57.48;96135.59;5009985;28;20473;-73
2023/06/19 05:52:49;;;;;;;12.38;8.75;;;;;;;20.66;57.20;96141.56;5010081;28;20046;-73
2023/06/19 05:55:17;;;;;;;13.93;8.77;;;;;;;20.75;57.95;96145.56;5010241;28;20038;-73
2023/06/19 05:57:44;;;;;;;16.67;9.80;;;;;;;20.75;56.35;96144.78;5015906;28;20049;-73
2023/06/19 06:00:14;;;;;;;12.75;8.40;;;;;;;20.84;56.71;96147.97;5029824;28;20053;-73
2023/06/19 06:02:40;;;;;;;12.90;8.80;;;;;;;20.82;56.52;96148.34;5030452;28;20065;-73
2023/06/19 06:05:09;;;;;;;12.57;9.02;;;;;;;20.89;56.40;96139.31;5029999;28;20056;-73
2023/06/19 06:07:36;;;;;;;11.05;8.90;;;;;;;20.97;56.44;96157.50;5022371;28;20049;-72
2023/06/19 06:10:03;;;;;;;11.68;9.23;;;;;;;21.01;56.69;96150.00;5029446;28;20048;-73
2023/06/19 06:12:31;;;;;;;9.75;8.32;;;;;;;20.97;57.32;96146.44;5021967;28;20521;-73
2023/06/19 06:14:57;;;;;;;10.00;8.30;;;;;;;21.09;57.19;96148.88;5030250;28;20041;-73
2023/06/19 06:17:24;;;;;;;11.35;9.18;;;;;;;20.98;57.56;96153.56;5029107;28;20041;-73
2023/06/19 06:19:50;;;;;;;14.30;8.90;;;;;;;21.10;57.17;96160.72;5030012;28;20037;-73
2023/06/19 06:22:18;;;;;;;12.45;9.05;;;;;;;21.16;57.79;96150.06;5029671;28;20409;-73
2023/06/19 06:24:46;;;;;;;9.82;7.80;;;;;;;21.28;57.64;96160.75;5030113;28;20101;-73
2023/06/19 06:27:13;;;;;;;9.40;7.78;;;;;;;21.42;57.70;96149.75;5029236;28;20585;-73
2023/06/19 06:29:40;;;;;;;19.83;9.25;;;;;;;21.29;57.43;96157.59;5029081;28;20052;-73
2023/06/19 06:32:08;;;;;;;14.10;8.95;;;;;;;21.37;57.73;96150.13;5029183;28;20045;-73
2023/06/19 06:34:35;;;;;;;10.20;7.47;;;;;;;21.55;58.22;96164.78;5030180;28;20041;-73
2023/06/19 06:37:01;;;;;;;10.68;8.07;;;;;;;21.63;57.64;96165.59;5029338;28;20413;-75
2023/06/19 06:39:28;;;;;;;11.85;8.48;;;;;;;21.67;57.24;96160.88;5029635;28;20047;-73
2023/06/19 06:41:55;;;;;;;13.30;8.15;;;;;;;21.74;56.70;96171.16;5029544;28;20037;-73
2023/06/19 06:44:21;;;;;;;11.50;7.75;;;;;;;21.85;56.95;96160.84;5029446;28;20057;-73
2023/06/19 06:46:49;;;;;;;12.63;9.25;;;;;;;21.73;56.11;96166.81;5029810;28;20063;-73
2023/06/19 06:49:16;;;;;;;13.48;9.55;;;;;;;21.79;55.95;96170.75;5028837;28;20049;-73
2023/06/19 06:51:43;;;;;;;10.68;8.77;;;;;;;21.80;54.50;96175.91;5029743;28;20091;-73
2023/06/19 06:54:10;;;;;;;9.75;8.63;;;;;;;21.94;54.95;96169.56;5029043;28;20428;-73
2023/06/19 06:56:36;;;;;;;12.40;8.77;;;;;;;21.88;54.63;96176.72;5029598;28;20049;-73
2023/06/19 06:59:03;;;;;;;10.30;8.13;;;;;;;22.03;54.07;96178.28;5030011;28;20104;-74
2023/06/19 07:01:29;;;;;;;12.13;8.93;;;;;;;22.24;54.68;96177.50;5020745;28;20065;-73
2023/06/19 07:03:57;;;;;;;11.20;9.07;;;;;;;22.23;54.08;96177.88;5031861;28;20045;-73
2023/06/19 07:06:24;;;;;;;12.68;8.98;;;;;;;22.29;53.67;96184.63;5023688;28;20048;-73
2023/06/19 07:08:50;;;;;;;13.43;9.35;;;;;;;22.31;51.95;96182.25;5031182;28;20046;-73
2023/06/19 07:11:17;;;;;;;13.02;9.43;;;;;;;22.45;51.90;96187.78;5028863;28;20045;-73
2023/06/19 07:13:43;;;;;;;10.23;8.80;;;;;;;22.58;52.54;96191.69;5029842;28;20046;-73
2023/06/19 07:16:10;;;;;;;12.73;8.38;;;;;;;22.66;52.67;96198.84;5028738;28;20053;-73
2023/06/19 07:18:38;;;;;;;14.60;8.75;;;;;;;22.82;52.53;96195.63;5029094;28;20056;-73
2023/06/19 07:21:12;;;;;;;11.57;8.00;;;;;;;22.96;52.93;96199.56;5027238;28;20041;-73
2023/06/19 07:23:39;;;;;;;10.85;8.60;;;;;;;23.00;52.52;96201.13;5019600;28;20069;-73
2023/06/19 07:26:06;;;;;;;11.32;8.52;;;;;;;23.18;53.03;96195.50;5026851;28;20049;-74
2023/06/19 07:28:32;;;;;;;10.38;8.48;;;;;;;23.30;52.80;96208.13;5028969;28;20584;-73
2023/06/19 07:30:59;;;;;;;10.80;8.85;;;;;;;23.27;51.23;96211.72;5034234;28;20046;-73
2023/06/19 07:33:25;;;;;;;11.63;8.10;;;;;;;23.30;51.62;96211.72;5012627;28;20052;-73
2023/06/19 07:35:51;;;;;;;12.32;8.52;;;;;;;23.38;52.48;96209.66;5013229;28;20038;-73
2023/06/19 07:38:19;;;;;;;10.90;8.50;;;;;;;23.39;51.99;96211.28;5012867;28;20046;-73
2023/06/19 07:40:46;;;;;;;14.07;8.95;;;;;;;23.28;51.47;96205.75;5013306;28;20042;-73
2023/06/19 07:43:12;;;;;;;9.60;7.70;;;;;;;23.34;51.73;96204.16;5012960;28;20045;-73
2023/06/19 07:45:39;;;;;;;10.30;7.28;;;;;;;23.34;51.13;96212.50;5024767;28;20046;-73
2023/06/19 07:48:05;;;;;;;11.60;8.40;;;;;;;23.45;51.19;96209.66;5032464;28;20053;-73
2023/06/19 07:50:32;;;;;;;11.20;8.75;;;;;;;23.38;51.89;96216.00;5032773;28;20045;-73
2023/06/19 07:52:59;;;;;;;11.88;9.45;;;;;;;23.37;51.78;96210.88;5032797;28;20045;-73
2023/06/19 07:55:28;;;;;;;12.18;9.07;;;;;;;23.33;51.70;96215.66;5014449;28;20045;-74
2023/06/19 07:57:56;;;;;;;10.63;8.32;;;;;;;23.42;51.55;96211.25;5032622;28;20063;-73
2023/06/19 08:00:23;;;;;;;12.50;9.60;;;;;;;23.29;50.14;96223.25;5031913;28;20053;-73
2023/06/19 08:02:49;;;;;;;13.98;8.52;;;;;;;23.35;50.68;96227.97;5032815;28;20046;-73
2023/06/19 08:05:16;;;;;;;11.50;9.05;;;;;;;23.38;51.10;96221.56;5032147;28;20041;-73
2023/06/19 08:07:43;;;;;;;12.20;9.00;;;;;;;23.37;51.23;96222.00;5032746;28;20044;-73
2023/06/19 08:10:10;;;;;;;12.25;9.68;;;;;;;23.31;50.90;96227.19;5031789;28;20049;-73
2023/06/19 08:12:38;;;;;;;10.57;8.85;;;;;;;23.56;51.71;96227.06;5032557;28;20048;-72
2023/06/19 08:15:05;;;;;;;15.23;9.65;;;;;;;23.68;49.59;96229.38;5031862;28;20037;-73
2023/06/19 08:17:31;;;;;;;12.70;9.45;;;;;;;23.80;50.93;96233.66;5032412;28;20054;-73
2023/06/19 08:19:58;;;;;;;11.35;9.63;;;;;;;23.95;50.40;96226.81;5032400;28;20052;-74
2023/06/19 08:22:25;;;;;;;13.82;9.68;;;;;;;24.03;50.36;96227.56;5031909;28;20045;-73
2023/06/19 08:24:51;;;;;;;14.52;9.45;;;;;;;24.40;51.96;96226.09;5032328;28;20038;-73
2023/06/19 08:27:18;;;;;;;12.98;8.65;;;;;;;24.67;50.43;96221.44;5031440;28;20060;-74
2023/06/19 08:29:45;;;;;;;13.20;8.63;;;;;;;24.76;48.90;96229.31;5031573;28;20049;-73
2023/06/19 08:32:12;;;;;;;10.73;9.05;;;;;;;24.80;48.10;96223.72;5032131;28;20489;-74
2023/06/19 08:34:38;;;;;;;9.23;8.05;;;;;;;24.77;46.63;96230.91;5012104;28;20050;-73
2023/06/19 08:37:06;;;;;;;12.43;8.00;;;;;;;24.71;45.81;96227.78;5011861;28;20057;-73
2023/06/19 08:39:32;;;;;;;11.40;8.40;;;;;;;24.46;47.50;96235.59;5011689;28;20050;-74
2023/06/19 08:41:59;;;;;;;13.75;8.40;;;;;;;24.60;47.86;96237.44;5012152;28;20042;-73
2023/06/19 08:44:26;;;;;;;14.85;8.93;;;;;;;25.00;46.47;96244.16;5011581;28;20064;-74
2023/06/19 08:46:53;;;;;;;10.02;8.20;;;;;;;25.44;45.02;96246.06;5012424;28;20497;-73
2023/06/19 08:49:20;;;;;;;11.50;8.32;;;;;;;25.48;44.48;96252.41;5011547;28;20046;-73
2023/06/19 08:51:46;;;;;;;8.48;7.15;;;;;;;25.22;43.67;96251.13;5012382;28;20054;-74
2023/06/19 08:54:13;;;;;;;10.82;7.28;;;;;;;25.16;44.75;96240.84;5022547;28;20049;-74
2023/06/19 08:56:40;;;;;;;10.45;7.30;;;;;;;25.11;44.54;96239.31;5035096;28;20061;-73
2023/06/19 08:59:11;;;;;;;9.10;7.30;;;;;;;24.72;45.71;96240.50;5034695;28;20046;-73
2023/06/19 09:01:37;;;;;;;12.30;8.05;;;;;;;24.58;47.27;96243.41;5035963;28;20037;-73
2023/06/19 09:04:13;;;;;;;11.15;8.85;;;;;;;24.71;46.09;96238.91;5034871;28;20053;-74
2023/06/19 09:06:48;;;;;;;16.85;8.70;;;;;;;24.81;47.54;96242.00;5035765;28;20073;-74
2023/06/19 09:09:15;;;;;;;10.10;7.70;;;;;;;25.32;46.35;96246.63;5035579;28;20046;-74
2023/06/19 09:11:44;;;;;;;10.90;8.32;;;;;;;25.35;45.29;96242.22;5039041;28;20462;-74
2023/06/19 09:14:11;;;;;;;13.25;8.73;;;;;;;25.73;46.12;96240.09;5040139;28;20650;-75
2023/06/19 09:16:39;;;;;;;13.88;8.55;;;;;;;26.10;45.88;96246.75;5017418;28;20069;-75
2023/06/19 09:22:30;;;;;;;9.27;7.32;;;;;;;26.67;44.65;96235.44;5024484;28;20141;-74
2023/06/19 09:25:01;;;;;;;13.43;8.25;;;;;;;26.85;43.33;96229.56;5031516;28;20046;-74
2023/06/19 09:27:33;;;;;;;10.55;7.00;;;;;;;26.46;42.58;96225.44;5030794;28;20053;-75
2023/06/19 09:29:59;;;;;;;9.57;6.80;;;;;;;26.33;43.65;96237.63;5017789;28;20049;-74
2023/06/19 09:32:28;;;;;;;8.82;6.82;;;;;;;26.11;43.00;96237.19;5028524;28;20382;-73
2023/06/19 09:34:58;;;;;;;8.98;6.15;;;;;;;26.10;43.54;96239.19;5023080;28;20634;-74
2023/06/19 09:37:26;;;;;;;8.90;6.93;;;;;;;25.92;43.86;96238.66;5030285;28;20041;-74
2023/06/19 09:39:56;;;;;;;8.57;6.50;;;;;;;25.79;44.63;96229.28;5030948;28;20041;-74
2023/06/19 09:42:28;;;;;;;9.13;5.75;;;;;;;25.66;44.61;96231.84;5030273;28;20042;-74
2023/06/19 09:44:59;;;;;;;6.68;5.88;;;;;;;25.70;45.87;96238.94;5030828;28;20124;-74
2023/06/19 09:47:28;;;;;;;10.18;6.35;;;;;;;25.81;45.26;96236.03;5030537;28;20578;-73
2023/06/19 09:49:56;;;;;;;10.73;7.20;;;;;;;25.73;45.40;96238.09;5030496;28;20056;-74
2023/06/19 09:52:23;;;;;;;11.85;6.90;;;;;;;25.62;45.51;96245.81;5029049;28;20065;-73
2023/06/19 09:54:51;;;;;;;11.77;7.10;;;;;;;25.60;45.71;96239.88;5030342;28;20051;-74
2023/06/19 09:57:19;;;;;;;15.63;7.13;;;;;;;25.65;46.19;96239.41;5030037;28;20128;-74
2023/06/19 09:59:49;;;;;;;10.95;7.38;;;;;;;25.55;46.63;96229.19;5030174;28;20038;-73
2023/06/19 10:02:16;;;;;;;8.25;6.88;;;;;;;25.44;46.79;96234.94;5029671;28;20133;-74
2023/06/19 10:04:45;;;;;;;10.93;7.07;;;;;;;25.44;46.53;96234.13;5038646;28;20038;-73
2023/06/19 10:07:20;;;;;;;12.70;7.38;;;;;;;25.64;48.27;96235.06;5029802;28;20122;-74
2023/06/19 10:09:58;;;;;;;9.65;6.53;;;;;;;26.10;47.50;96227.22;5029830;28;20073;-74
2023/06/19 10:12:37;;;;;;;11.27;7.15;;;;;;;26.37;46.03;96232.78;5029870;28;20041;-74
2023/06/19 10:15:16;;;;;;;7.40;6.47;;;;;;;26.31;46.69;96234.47;5029728;28;20049;-74
2023/06/19 10:17:48;;;;;;;10.55;8.20;;;;;;;26.31;45.35;96229.69;5030407;28;20053;-74
2023/06/19 10:20:22;;;;;;;12.18;8.88;;;;;;;26.15;47.06;96227.53;5029462;28;20409;-74
2023/06/19 10:22:53;;;;;;;12.45;8.18;;;;;;;26.12;46.28;96233.19;5022079;28;20045;-74
2023/06/19 10:25:22;;;;;;;14.25;8.32;;;;;;;26.00;46.42;96229.00;5029375;28;20041;-74
2023/06/19 10:27:52;;;;;;;10.18;8.32;;;;;;;26.20;46.30;96229.84;5029772;28;20091;-74
2023/06/19 10:30:19;;;;;;;9.52;8.20;;;;;;;26.53;45.61;96224.56;5029314;28;20096;-74
2023/06/19 10:32:45;;;;;;;12.18;7.70;;;;;;;26.88;45.67;96227.91;5029875;28;20061;-74
2023/06/19 10:35:12;;;;;;;11.70;8.40;;;;;;;27.08;44.18;96233.53;5029730;28;20053;-74
2023/06/19 10:37:39;;;;;;;9.15;8.00;;;;;;;27.28;45.06;96223.16;5029955;28;20124;-74
2023/06/19 10:40:09;;;;;;;13.27;8.60;;;;;;;27.51;43.65;96225.06;5015579;28;20057;-74
2023/06/19 10:42:37;;;;;;;9.45;8.30;;;;;;;27.78;43.76;96227.72;5010938;28;20077;-73
2023/06/19 10:45:07;;;;;;;10.25;7.68;;;;;;;27.71;41.17;96217.44;5029154;28;20053;-74
2023/06/19 10:47:34;;;;;;;12.55;8.50;;;;;;;27.89;43.74;96222.66;5012246;28;20049;-73
2023/06/19 10:50:00;;;;;;;8.55;7.18;;;;;;;27.97;42.19;96217.66;5028976;28;20060;-74
2023/06/19 10:52:29;;;;;;;11.15;6.60;;;;;;;27.83;41.99;96208.41;5030011;28;20511;-74
2023/06/19 10:54:56;;;;;;;7.15;6.15;;;;;;;27.96;41.62;96213.28;5024689;28;20045;-74
2023/06/19 10:57:28;;;;;;;9.50;7.32;;;;;;;27.96;41.15;96216.09;5011846;28;20100;-74
2023/06/19 10:59:55;;;;;;;7.82;6.80;;;;;;;27.70;40.21;96212.25;5021957;28;20041;-74
2023/06/19 11:02:23;;;;;;;8.48;7.07;;;;;;;27.64;40.11;96217.59;5029122;28;20049;-74
2023/06/19 11:04:50;;;;;;;9.23;6.78;;;;;;;27.39;40.82;96214.53;5029281;28;20052;-74
2023/06/19 11:07:16;;;;;;;8.75;5.95;;;;;;;27.44;42.01;96211.22;5029167;28;20045;-74
2023/06/19 11:09:43;;;;;;;8.43;5.72;;;;;;;27.45;41.31;96204.41;5029476;28;20069;-74
2023/06/19 11:12:10;;;;;;;8.90;5.57;;;;;;;27.41;39.86;96209.31;5028862;28;20042;-74
2023/06/19 11:14:39;;;;;;;10.02;5.93;;;;;;;27.52;39.97;96209.88;5030082;28;20060;-74
2023/06/19 11:17:06;;;;;;;8.18;5.65;;;;;;;27.70;41.20;96203.88;5029275;28;20053;-74
2023/06/19 11:19:34;;;;;;;9.13;6.80;;;;;;;27.71;40.70;96194.28;5021237;28;20046;-74
2023/06/19 11:22:03;;;;;;;7.65;6.00;;;;;;;27.95;40.24;96192.91;5029616;28;20045;-74
2023/06/19 11:24:29;;;;;;;8.10;5.80;;;;;;;28.01;40.85;96190.38;5029055;28;20073;-74
2023/06/19 11:26:59;;;;;;;9.88;6.00;;;;;;;27.95;39.76;96186.53;5029507;28;20052;-74
2023/06/19 11:29:28;;;;;;;8.13;5.80;;;;;;;28.08;39.42;96187.41;5012509;28;20045;-74
2023/06/19 11:32:05;;;;;;;7.18;5.13;;;;;;;28.21;39.89;96193.88;5021610;28;20060;-74
2023/06/19 11:34:36;;;;;;;5.68;4.75;;;;;;;28.41;38.49;96184.63;5028957;28;20099;-74